• Join FlightAware (Why Join?)
  • Login
  • US Flag 
07:38AM EST


 

Airport Tracker/Info


-or-


 

Live Flight TrackerFlight Track Log ✈ SWA1258 ✈ 03-May-2013 ✈ KBWI - KPBI

Flight Track Log - Related Links

Times and Time Zones

All times are in EDT time to prevent confusion due to time zone crossing. See the SWA1258 flight status page for this flight to view local times or setup timezone preferences in your user account.

Time Position Orientation Groundspeed Altitude Reporting Facility
EDT Latitude Longitude Course Direction KTS MPH feet Rate Location/Type
03:56PM 39.1000 -76.6167 153° Southeast 206 237 3,300  Level Potomac TRACON
03:57PM 39.0500 -76.5667 142° Southeast 256 295 6,000 3,180 Climbing Potomac TRACON
03:58PM 38.9833 -76.5167 150° Southeast 266 306 9,700 2,940 Climbing Potomac TRACON
03:59PM 38.9167 -76.4667 150° Southeast 316 364 11,900 1,680 Climbing Potomac TRACON
04:01PM 38.7172 -76.6239 212° Southwest 383 441 15,500 1,740 Climbing Washington Center
04:02PM 38.6269 -76.6944 211° Southwest 383 441 18,000 1,860 Climbing Washington Center
04:03PM 38.5203 -76.7275 194° South 383 441 19,200 1,860 Climbing Washington Center
04:04PM 38.4100 -76.7097 173° South 386 444 21,700 2,460 Climbing Washington Center
04:05PM 38.2808 -76.6867 172° South 397 457 24,200 2,100 Climbing Washington Center
04:06PM 38.1600 -76.6719 175° South 424 488 26,000 840 Climbing Washington Center
04:07PM 38.0392 -76.6569 174° South 435 501 26,000 780 Level Washington Center
04:08PM 37.9164 -76.6394 174° South 441 507 27,600 1,620 Climbing Washington Center
04:09PM 37.7892 -76.6219 174° South 448 516 29,200 1,500 Climbing Washington Center
04:10PM 37.6600 -76.6069 175° South 461 531 30,700 1,680 Climbing Washington Center
04:11PM 37.5308 -76.5897 174° South 466 536 32,700 1,620 Climbing Washington Center
04:12PM 37.4017 -76.5722 174° South 466 536 34,000 1,440 Climbing Washington Center
04:13PM 37.2783 -76.5967 189° South 445 512 35,600 1,620 Climbing Washington Center
04:14PM 37.1592 -76.6342 194° South 445 512 37,300 1,200 Climbing Washington Center
04:15PM 37.0419 -76.6744 195° South 445 512 38,000 300 Climbing Washington Center
04:16PM 36.9247 -76.7117 194° South 445 512 38,000  Level Washington Center
04:17PM 36.8078 -76.7514 195° South 440 506 38,000  Level Washington Center
04:18PM 36.7133 -76.7839 195° South 440 506 38,000  Level Washington Center
04:19PM 36.5753 -76.8308 195° South 434 499 38,000  Level Washington Center
04:20PM 36.4622 -76.8728 197° South 434 499 38,000  Level Washington Center
04:21PM 36.3553 -76.9072 195° South 434 499 38,000  Level Washington Center
04:22PM 36.2381 -76.9492 196° South 439 505 38,000  Level Washington Center
04:23PM 36.1231 -76.9858 194° South 439 505 38,000  Level Washington Center
04:24PM 36.0036 -77.0247 195° South 439 505 38,000  Level Washington Center
04:25PM 35.8883 -77.0636 195° South 439 505 38,000  Level Washington Center
04:26PM 35.7689 -77.1025 195° South 439 505 38,000  Level Washington Center
04:27PM 35.6558 -77.1386 195° South 432 497 38,000  Level Washington Center
04:28PM 35.5383 -77.1747 194° South 432 497 38,000  Level Washington Center
04:29PM 35.4231 -77.2131 195° South 432 497 38,000  Level Washington Center
04:30PM 35.3119 -77.2517 196° South 432 497 38,000  Level Washington Center
04:31PM 35.2008 -77.2875 195° South 432 497 38,000  Level Washington Center
04:32PM 35.0878 -77.3258 196° South 425 489 38,000  Level Washington Center
04:33PM 34.9767 -77.3564 193° South 420 483 38,000  Level Washington Center
04:34PM 34.8633 -77.3944 195° South 420 483 38,000  Level Washington Center
04:35PM 34.7564 -77.4350 197° South 420 483 38,000  Level Washington Center
04:36PM 34.6433 -77.4703 194° South 420 483 38,000  Level Washington Center
04:37PM 34.5300 -77.5056 194° South 420 483 38,000  Level Washington Center
04:38PM 34.4167 -77.5431 195° South 420 483 38,000  Level Washington Center
04:39PM 34.3036 -77.5781 194° South 420 483 38,000  Level Washington Center
04:41PM 34.0656 -77.6511 194° South 418 481 38,000  Level Jacksonville Center
04:42PM 33.9503 -77.6881 195° South 428 493 38,000  Level Jacksonville Center
04:43PM 33.8328 -77.7250 195° South 428 493 38,000  Level Jacksonville Center
04:44PM 33.7194 -77.7617 195° South 428 493 38,000  Level Jacksonville Center
04:45PM 33.6083 -77.7956 194° South 428 493 38,000  Level Jacksonville Center
04:46PM 33.4928 -77.8319 195° South 428 493 38,000  Level Jacksonville Center
04:47PM 33.3794 -77.8658 194° South 428 493 38,000 600 Level Jacksonville Center
04:48PM 33.2703 -77.9019 195° South 428 493 39,300 900 Climbing Jacksonville Center
04:49PM 33.1589 -77.9353 194° South 423 487 39,800 300 Climbing Jacksonville Center
04:50PM 33.0456 -77.9689 194° South 423 487 40,000 60 Climbing Jacksonville Center
04:51PM 32.9319 -78.0022 194° South 423 487 40,000  Level Jacksonville Center
04:52PM 32.8186 -78.0381 195° South 423 487 40,000  Level Jacksonville Center
04:53PM 32.7072 -78.0714 194° South 423 487 40,000  Level Jacksonville Center
04:54PM 32.5958 -78.1067 195° South 423 487 40,000  Level Jacksonville Center
04:55PM 32.4864 -78.1372 193° South 412 474 40,000  Level Jacksonville Center
04:56PM 32.3769 -78.1700 194° South 412 474 40,000  Level Jacksonville Center
04:57PM 32.2675 -78.2003 193° South 412 474 40,000  Level Jacksonville Center
04:58PM 32.1581 -78.2328 194° South 412 474 40,000  Level Jacksonville Center
04:59PM 32.0614 -78.2744 200° South 412 474 40,000  Level Jacksonville Center
05:00PM 31.9539 -78.3042 193° South 412 474 40,000  Level Jacksonville Center
05:01PM 31.8406 -78.3417 196° South 412 474 40,000  Level Jacksonville Center
05:02PM 31.7311 -78.3717 193° South 412 474 40,000  Level Jacksonville Center
05:03PM 31.6214 -78.4036 194° South 412 474 40,000  Level Jacksonville Center
05:04PM 31.5081 -78.4383 195° South 418 481 40,000  Level Jacksonville Center
05:05PM 31.3944 -78.4731 195° South 418 481 40,000  Level Jacksonville Center
05:06PM 31.2808 -78.5075 195° South 418 481 40,000  Level Jacksonville Center
05:07PM 31.1669 -78.5394 193° South 423 487 40,000  Level Jacksonville Center
05:08PM 31.0533 -78.5714 194° South 429 494 40,000  Level Jacksonville Center
05:09PM 30.9356 -78.6058 194° South 429 494 40,000  Level Jacksonville Center
05:10PM 30.8217 -78.6400 194° South 429 494 40,000  Level Jacksonville Center
05:11PM 30.7061 -78.6744 194° South 429 494 40,000  Level Jacksonville Center
05:12PM 30.5433 -78.7217 194° South 406 467 40,000  Level Miami Center
05:13PM 30.4344 -78.7536 194° South 417 480 40,000  Level Miami Center
05:14PM 30.3172 -78.7875 194° South 428 493 40,000  Level Miami Center
05:15PM 30.1961 -78.8214 194° South 433 498 40,000  Level Miami Center
05:16PM 30.0872 -78.8528 194° South 421 484 40,000  Level Miami Center
05:17PM 29.9781 -78.8964 199° South 416 479 40,000  Level Miami Center
05:18PM 29.8608 -78.9253 192° South 421 484 40,000  Level Miami Center
05:19PM 29.7478 -78.9564 193° South 421 484 40,000  Level Miami Center
05:20PM 29.6328 -78.9878 193° South 421 484 40,000  Level Miami Center
05:21PM 29.5175 -79.0211 194° South 421 484 40,000  Level Miami Center
05:22PM 29.4086 -79.0547 195° South 421 484 40,000 -300 Level Miami Center
05:23PM 29.2872 -79.0833 192° South 421 484 39,500 -720 Descending Miami Center
05:24PM 29.1742 -79.1094 191° South 421 484 38,600 -960 Descending Miami Center
05:25PM 29.0611 -79.1333 190° South 421 484 37,600 -960 Descending Miami Center
05:26PM 28.9397 -79.1544 189° South 433 498 36,700 -900 Descending Miami Center
05:27PM 28.8183 -79.1781 190° South 438 504 35,800 -960 Descending Miami Center
05:28PM 28.6969 -79.1969 188° South 438 504 34,800 -960 Descending Miami Center
05:29PM 28.5756 -79.2203 190° South 443 510 33,900 -960 Descending Miami Center
05:30PM 28.4519 -79.2414 189° South 448 516 32,900 -960 Descending Miami Center
05:31PM 28.3306 -79.2625 189° South 448 516 32,000 -960 Descending Miami Center
05:32PM 28.2050 -79.2881 190° South 448 516 31,000 -1,020 Descending Miami Center
05:33PM 28.0869 -79.3442 203° Southwest 448 516 30,000 -1,500 Descending Miami Center
05:34PM 27.9775 -79.4053 206° Southwest 454 522 28,000 -2,520 Descending Miami Center
05:35PM 27.8572 -79.4756 207° Southwest 449 517 25,000 -2,820 Descending Miami Center
05:36PM 27.7603 -79.5294 206° Southwest 435 501 22,400 -2,640 Descending Miami Center
05:37PM 27.6567 -79.5881 207° Southwest 435 501 19,800 -2,880 Descending Miami Center
05:38PM 27.5469 -79.6489 206° Southwest 410 472 16,700 -2,760 Descending Miami Center
05:39PM 27.4500 -79.7025 206° Southwest 396 456 14,300 -2,400 Descending Miami Center
05:40PM 27.3592 -79.7542 207° Southwest 386 444 11,900 -2,400 Descending Miami Center
05:41PM 27.2789 -79.8011 207° Southwest 367 422 9,600 -1,860 Descending Miami Center
05:42PM 27.1839 -79.8547 207° Southwest 351 404 8,200 -900 Descending Miami Center
05:43PM 27.1097 -79.8950 206° Southwest 318 366 7,900 -900 Descending Miami Center
05:44PM 27.0422 -79.9328 206° Southwest 293 337 6,500 -1,440 Descending Miami Center
05:45PM 26.9808 -79.9683 207° Southwest 283 326 5,100 -1,260 Descending Miami Center
05:46PM 26.9194 -80.0158 215° Southwest 273 314 4,000 -600 Descending Miami Center
05:47PM 26.8556 -80.0675 216° Southwest 267 307 4,000  Level Miami Center
05:48PM 26.8061 -80.1244 226° Southwest 262 302 4,000  Level Miami Center
05:50PM 26.7933 -80.2518 264° West  Level FlightAware Approximate
05:57PM 26.6832 -80.0956 110° East  Level Estimated
05:58PM 26.6832 -80.0956 110° East  Level Estimated
05:59PM 26.6832 -80.0956 110° East  Level Estimated
06:00PM 26.6832 -80.0956 110° East  Level Estimated
06:01PM 26.6832 -80.0956 110° East  Level Estimated
06:02PM 26.6832 -80.0956 110° East  Level Estimated